East Blacksea — T2ZH3 — position and weather

sailwx.info

Track history (hours):
 
Tides and Currents Weather Stations Pressure Air Temp Water Temp Dewpoint Dewpoint Depression Visibility Wind Speed Wind Dir Waves Ship Positions

East Blacksea

Last reported at 2017-Nov-16 06:43 UTC. Time now 2017-Nov-22 16:43 UTC.
Position N 45°42' E 036°48'.

Length 69 m; draft 2.2 m.

Type: Cargo ship. MMSI: 572341210.

Date/timePositionNaut miles runAvg speedWind from/ knotsBaromVisibWave heightAir tempDewpointWater temp
2017-Nov-16 06:43N 45°42' E 036°48'10 6.7
2017-Nov-16 05:10N 45°32' E 036°45'3 6.7
2017-Nov-16 04:41N 45°29' E 036°43'1 6.8
2017-Nov-16 04:29N 45°28' E 036°42'3 6.6
2017-Nov-16 04:00N 45°25' E 036°41'3 6.6
2017-Nov-16 03:30N 45°22' E 036°40'3 5.9
2017-Nov-16 03:01N 45°20' E 036°37'3 6.3
2017-Nov-16 02:30N 45°19' E 036°33'3 5.8
2017-Nov-16 02:01N 45°17' E 036°29'3 6.0
2017-Nov-16 01:30N 45°14' E 036°29'2 0.2
2017-Nov-15 17:40N 45°13' E 036°30'0 0.0
2017-Nov-15 17:22N 45°13' E 036°30'0 0.0
2017-Nov-15 16:58N 45°13' E 036°30'0 0.0
2017-Nov-15 16:28N 45°13' E 036°30'0 0.0
2017-Nov-15 14:55N 45°13' E 036°30'3 6.8
2017-Nov-15 14:31N 45°10' E 036°30'  
2017-Nov-07 19:41N 45°12' E 036°28'1 6.4
2017-Nov-07 19:30N 45°13' E 036°28'3 6.4
2017-Nov-07 19:00N 45°16' E 036°28'3 6.0
2017-Nov-07 18:30N 45°19' E 036°30'4 7.1
2017-Nov-07 18:00N 45°20' E 036°35'4 7.0
2017-Nov-07 17:30N 45°22' E 036°40'3 6.5
2017-Nov-07 17:00N 45°25' E 036°40'2 4.6
2017-Nov-07 16:30N 45°27' E 036°39'1 2.5
2017-Nov-07 15:57N 45°28' E 036°37'0 0.1
2017-Nov-07 15:24N 45°28' E 036°37'0 0.0
2017-Nov-07 15:00N 45°28' E 036°37'0 0.0
2017-Nov-07 14:30N 45°28' E 036°37'0 0.0
2017-Nov-07 14:00N 45°28' E 036°37'0 0.0
2017-Nov-07 13:30N 45°28' E 036°37'0 0.0
2017-Nov-07 13:00N 45°28' E 036°37'0 0.0
2017-Nov-07 12:30N 45°28' E 036°37'0 0.0
2017-Nov-07 12:00N 45°28' E 036°37'0 0.0
2017-Nov-07 11:24N 45°28' E 036°37'0 0.0
2017-Nov-07 11:00N 45°28' E 036°37'0 0.0
2017-Nov-07 10:30N 45°28' E 036°37'0 0.0
2017-Nov-07 09:51N 45°28' E 036°37'0 0.0
2017-Nov-07 09:30N 45°28' E 036°37'0 0.0
2017-Nov-07 08:57N 45°28' E 036°37'0 0.0
2017-Nov-07 08:30N 45°28' E 036°37'0 0.0
2017-Nov-07 07:57N 45°28' E 036°37'0 0.0
2017-Nov-07 07:27N 45°28' E 036°37'0 0.0
2017-Nov-07 07:00N 45°28' E 036°37'0 0.0
2017-Nov-07 06:27N 45°28' E 036°37'0 0.0
2017-Nov-07 06:00N 45°28' E 036°37'0 0.0
2017-Nov-07 05:27N 45°28' E 036°37'0 0.0
2017-Nov-07 05:00N 45°28' E 036°37'0 0.0
2017-Nov-07 04:30N 45°28' E 036°37'0 0.0
2017-Nov-07 03:57N 45°28' E 036°37'0 0.0
2017-Nov-07 03:27N 45°28' E 036°37'0 0.0
2017-Nov-07 02:27N 45°28' E 036°37'0 0.0
2017-Nov-07 01:33N 45°28' E 036°37'0 0.0
2017-Nov-07 01:24N 45°28' E 036°37'0 0.0
2017-Nov-07 00:57N 45°28' E 036°37'0 0.0
2017-Nov-07 00:30N 45°28' E 036°37'0 0.0
2017-Nov-06 23:54N 45°28' E 036°37'0 0.0
2017-Nov-06 23:00N 45°28' E 036°37'0 0.0
2017-Nov-06 22:30N 45°28' E 036°37'0 0.0
2017-Nov-06 22:00N 45°28' E 036°37'0 0.0
2017-Nov-06 20:57N 45°28' E 036°37'0 0.0
2017-Nov-06 20:27N 45°28' E 036°37'  
Track history (hours):
 
Tides and Currents Weather Stations Pressure Air Temp Water Temp Dewpoint Dewpoint Depression Visibility Wind Speed Wind Dir Waves Ship Positions

East Blacksea

Last reported at 2017-Nov-16 06:43 UTC. Time now 2017-Nov-22 16:43 UTC.
Position N 45°42' E 036°48'.

Length 69 m; draft 2.2 m.

Type: Cargo ship. MMSI: 572341210.

Date/timePositionNaut miles runAvg speedWind from/ knotsBaromVisibWave heightAir tempDewpointWater temp
2017-Nov-16 06:43N 45°42' E 036°48'10 6.7
2017-Nov-16 05:10N 45°32' E 036°45'3 6.7
2017-Nov-16 04:41N 45°29' E 036°43'1 6.8
2017-Nov-16 04:29N 45°28' E 036°42'3 6.6
2017-Nov-16 04:00N 45°25' E 036°41'3 6.6
2017-Nov-16 03:30N 45°22' E 036°40'3 5.9
2017-Nov-16 03:01N 45°20' E 036°37'3 6.3
2017-Nov-16 02:30N 45°19' E 036°33'3 5.8
2017-Nov-16 02:01N 45°17' E 036°29'3 6.0
2017-Nov-16 01:30N 45°14' E 036°29'2 0.2
2017-Nov-15 17:40N 45°13' E 036°30'0 0.0
2017-Nov-15 17:22N 45°13' E 036°30'0 0.0
2017-Nov-15 16:58N 45°13' E 036°30'0 0.0
2017-Nov-15 16:28N 45°13' E 036°30'0 0.0
2017-Nov-15 14:55N 45°13' E 036°30'3 6.8
2017-Nov-15 14:31N 45°10' E 036°30'  
2017-Nov-07 19:41N 45°12' E 036°28'1 6.4
2017-Nov-07 19:30N 45°13' E 036°28'3 6.4
2017-Nov-07 19:00N 45°16' E 036°28'3 6.0
2017-Nov-07 18:30N 45°19' E 036°30'4 7.1
2017-Nov-07 18:00N 45°20' E 036°35'4 7.0
2017-Nov-07 17:30N 45°22' E 036°40'3 6.5
2017-Nov-07 17:00N 45°25' E 036°40'2 4.6
2017-Nov-07 16:30N 45°27' E 036°39'1 2.5
2017-Nov-07 15:57N 45°28' E 036°37'0 0.1
2017-Nov-07 15:24N 45°28' E 036°37'0 0.0
2017-Nov-07 15:00N 45°28' E 036°37'0 0.0
2017-Nov-07 14:30N 45°28' E 036°37'0 0.0
2017-Nov-07 14:00N 45°28' E 036°37'0 0.0
2017-Nov-07 13:30N 45°28' E 036°37'0 0.0
2017-Nov-07 13:00N 45°28' E 036°37'0 0.0
2017-Nov-07 12:30N 45°28' E 036°37'0 0.0
2017-Nov-07 12:00N 45°28' E 036°37'0 0.0
2017-Nov-07 11:24N 45°28' E 036°37'0 0.0
2017-Nov-07 11:00N 45°28' E 036°37'0 0.0
2017-Nov-07 10:30N 45°28' E 036°37'0 0.0
2017-Nov-07 09:51N 45°28' E 036°37'0 0.0
2017-Nov-07 09:30N 45°28' E 036°37'0 0.0
2017-Nov-07 08:57N 45°28' E 036°37'0 0.0
2017-Nov-07 08:30N 45°28' E 036°37'0 0.0
2017-Nov-07 07:57N 45°28' E 036°37'0 0.0
2017-Nov-07 07:27N 45°28' E 036°37'0 0.0
2017-Nov-07 07:00N 45°28' E 036°37'0 0.0
2017-Nov-07 06:27N 45°28' E 036°37'0 0.0
2017-Nov-07 06:00N 45°28' E 036°37'0 0.0
2017-Nov-07 05:27N 45°28' E 036°37'0 0.0
2017-Nov-07 05:00N 45°28' E 036°37'0 0.0
2017-Nov-07 04:30N 45°28' E 036°37'0 0.0
2017-Nov-07 03:57N 45°28' E 036°37'0 0.0
2017-Nov-07 03:27N 45°28' E 036°37'0 0.0
2017-Nov-07 02:27N 45°28' E 036°37'0 0.0
2017-Nov-07 01:33N 45°28' E 036°37'0 0.0
2017-Nov-07 01:24N 45°28' E 036°37'0 0.0
2017-Nov-07 00:57N 45°28' E 036°37'0 0.0
2017-Nov-07 00:30N 45°28' E 036°37'0 0.0
2017-Nov-06 23:54N 45°28' E 036°37'0 0.0
2017-Nov-06 23:00N 45°28' E 036°37'0 0.0
2017-Nov-06 22:30N 45°28' E 036°37'0 0.0
2017-Nov-06 22:00N 45°28' E 036°37'0 0.0
2017-Nov-06 20:57N 45°28' E 036°37'0 0.0
2017-Nov-06 20:27N 45°28' E 036°37'  

Dump ship's entire track history